La Belle — WDC2767 — position and weather

sailwx.info

Track history (hours):
 
Tides and Currents Weather Stations Pressure Air Temp Water Temp Dewpoint Dewpoint Depression Visibility Wind Speed Wind Dir Waves Ship Positions

La Belle

Owner: Double G Marine, LLC, Houma, LA. More information available from US FCC via Universal Licensing System and Coast Guard Vessel Documentation Center.

Last reported at 2017-Sep-19 11:31 UTC. Time now 2017-Sep-19 11:53 UTC.
Position N 29°56' W 093°08'.

Length 20 m.

Type: Towing. MMSI: 366997450.

Date/timePositionNaut miles runAvg speedWind from/ knotsBaromVisibWave heightAir tempDewpointWater temp
2017-Sep-19 11:31N 29°56' W 093°08'2 3.4
2017-Sep-19 11:00N 29°56' W 093°06'2 3.4
2017-Sep-19 10:30N 29°56' W 093°04'39 2.7
2017-Sep-18 20:16N 29°51' W 092°20'1 2.9
2017-Sep-18 20:00N 29°50' W 092°19'2 3.1
2017-Sep-18 19:15N 29°49' W 092°17'1 3.4
2017-Sep-18 19:00N 29°49' W 092°16'2 3.3
2017-Sep-18 18:31N 29°48' W 092°14'2 3.0
2017-Sep-18 18:00N 29°47' W 092°13'1 2.7
2017-Sep-18 17:30N 29°47' W 092°11'2 3.0
2017-Sep-18 17:01N 29°47' W 092°10'2 3.2
2017-Sep-18 16:31N 29°47' W 092°08'2 3.3
2017-Sep-18 16:01N 29°48' W 092°06'1 2.7
2017-Sep-18 15:30N 29°48' W 092°05'2 2.9
2017-Sep-18 14:55N 29°49' W 092°03'1 2.9
2017-Sep-18 14:30N 29°49' W 092°01'65 3.0
2017-Sep-17 16:29N 29°32' W 090°49'1 2.9
2017-Sep-17 15:58N 29°32' W 090°48'1 3.0
2017-Sep-17 15:31N 29°32' W 090°46'1 3.0
2017-Sep-17 15:01N 29°33' W 090°45'1 2.6
2017-Sep-17 14:31N 29°34' W 090°44'1 2.2
2017-Sep-17 14:00N 29°33' W 090°43'1 1.6
2017-Sep-17 13:31N 29°34' W 090°43'0 0.0
2017-Sep-17 13:01N 29°34' W 090°43'0 0.0
2017-Sep-17 12:31N 29°34' W 090°43'0 0.0
2017-Sep-17 12:00N 29°34' W 090°43'0 0.0
2017-Sep-17 11:30N 29°34' W 090°43'0 0.0
2017-Sep-17 11:00N 29°34' W 090°43'0 0.0
2017-Sep-17 10:30N 29°34' W 090°43'0 0.0
2017-Sep-17 10:00N 29°34' W 090°43'0 0.0
2017-Sep-17 09:30N 29°34' W 090°43'0 0.0
2017-Sep-17 09:01N 29°34' W 090°43'0 0.0
2017-Sep-17 08:30N 29°34' W 090°43'0 0.0
2017-Sep-17 08:00N 29°34' W 090°43'0 0.0
2017-Sep-17 07:31N 29°34' W 090°43'0 0.0
2017-Sep-17 07:00N 29°34' W 090°43'0 0.0
2017-Sep-17 06:30N 29°34' W 090°43'0 0.0
2017-Sep-17 06:00N 29°34' W 090°43'0 0.0
2017-Sep-17 05:30N 29°34' W 090°43'0 0.0
2017-Sep-17 05:00N 29°34' W 090°43'0 0.0
2017-Sep-17 04:30N 29°34' W 090°43'0 0.0
2017-Sep-17 04:00N 29°34' W 090°43'0 0.0
2017-Sep-17 03:30N 29°34' W 090°43'0 0.0
2017-Sep-17 03:00N 29°34' W 090°43'0 0.0
2017-Sep-17 02:30N 29°34' W 090°43'0 0.0
2017-Sep-17 02:00N 29°34' W 090°43'0 0.0
2017-Sep-17 01:30N 29°34' W 090°43'0 0.0
2017-Sep-17 01:00N 29°34' W 090°43'0 0.0
2017-Sep-17 00:30N 29°34' W 090°43'0 0.0
2017-Sep-17 00:00N 29°34' W 090°43'0 0.0
2017-Sep-16 23:30N 29°34' W 090°43'0 0.0
2017-Sep-16 23:00N 29°34' W 090°43'0 0.0
2017-Sep-16 22:31N 29°34' W 090°43'0 0.0
2017-Sep-16 22:00N 29°34' W 090°43'0 0.0
2017-Sep-16 21:30N 29°34' W 090°43'0 0.0
2017-Sep-16 21:00N 29°34' W 090°43'0 0.0
2017-Sep-16 20:30N 29°34' W 090°43'0 0.0
2017-Sep-16 20:00N 29°34' W 090°43'0 0.0
2017-Sep-16 19:30N 29°34' W 090°43'0 0.0
2017-Sep-16 19:00N 29°34' W 090°43'0 0.0
2017-Sep-16 18:30N 29°34' W 090°43'0 0.0
2017-Sep-16 18:00N 29°34' W 090°43'0 0.0
2017-Sep-16 17:30N 29°34' W 090°43'0 0.0
2017-Sep-16 17:00N 29°34' W 090°43'0 0.0
2017-Sep-16 16:30N 29°34' W 090°43'0 0.0
2017-Sep-16 16:00N 29°34' W 090°43'0 0.0
2017-Sep-16 15:30N 29°34' W 090°43'1 2.5
2017-Sep-16 15:00N 29°33' W 090°42'1 1.4
2017-Sep-16 14:30N 29°33' W 090°42'1 2.1
2017-Sep-16 14:00N 29°34' W 090°42'0 0.4
2017-Sep-16 13:30N 29°34' W 090°42'0 0.0
2017-Sep-16 13:00N 29°34' W 090°42'0 0.1
2017-Sep-16 12:30N 29°34' W 090°42'0 0.0
2017-Sep-16 12:01N 29°34' W 090°42'1 1.3
2017-Sep-16 11:30N 29°34' W 090°43'0 0.5
2017-Sep-16 11:01N 29°34' W 090°43'0 0.0
2017-Sep-16 10:30N 29°34' W 090°43'0 0.0
2017-Sep-16 10:00N 29°34' W 090°43'0 0.0
2017-Sep-16 09:30N 29°34' W 090°43'0 0.0
2017-Sep-16 09:00N 29°34' W 090°43'0 0.0
2017-Sep-16 08:31N 29°34' W 090°43'0 0.0
2017-Sep-16 08:00N 29°34' W 090°43'0 0.0
2017-Sep-16 07:30N 29°34' W 090°43'0 0.0
2017-Sep-16 07:00N 29°34' W 090°43'0 0.0
2017-Sep-16 06:30N 29°34' W 090°43'0 0.0
2017-Sep-16 06:00N 29°34' W 090°43'0 0.0
2017-Sep-16 05:30N 29°34' W 090°43'0 0.0
2017-Sep-16 05:00N 29°34' W 090°43'0 0.0
2017-Sep-16 04:30N 29°34' W 090°43'0 0.0
2017-Sep-16 04:00N 29°34' W 090°43'0 0.0
2017-Sep-16 03:30N 29°34' W 090°43'0 0.0
2017-Sep-16 03:00N 29°34' W 090°43'0 0.0
2017-Sep-16 02:31N 29°34' W 090°43'0 0.0
2017-Sep-16 02:00N 29°34' W 090°43'0 0.0
2017-Sep-16 01:30N 29°34' W 090°43'0 0.0
2017-Sep-16 01:00N 29°34' W 090°43'0 0.0
2017-Sep-16 00:30N 29°34' W 090°43'0 0.0
2017-Sep-16 00:00N 29°34' W 090°43'0 0.0
2017-Sep-15 23:30N 29°34' W 090°43'0 0.0
2017-Sep-15 23:00N 29°34' W 090°43'0 0.0
2017-Sep-15 22:30N 29°34' W 090°43'0 0.0
2017-Sep-15 22:00N 29°34' W 090°43'0 0.0
2017-Sep-15 21:30N 29°34' W 090°43'0 0.0
2017-Sep-15 21:00N 29°34' W 090°43'0 0.0
2017-Sep-15 20:30N 29°34' W 090°43'0 0.0
2017-Sep-15 20:00N 29°34' W 090°43'0 0.0
2017-Sep-15 19:30N 29°34' W 090°43'0 0.0
2017-Sep-15 19:00N 29°34' W 090°43'0 0.0
2017-Sep-15 18:30N 29°34' W 090°43'0 0.0
2017-Sep-15 18:00N 29°34' W 090°43'0 0.0
2017-Sep-15 17:30N 29°34' W 090°43'0 0.0
2017-Sep-15 17:00N 29°34' W 090°43'0 0.0
2017-Sep-15 16:30N 29°34' W 090°43'0 0.0
2017-Sep-15 16:00N 29°34' W 090°43'0 0.0
2017-Sep-15 15:30N 29°34' W 090°43'0 0.0
2017-Sep-15 15:01N 29°34' W 090°43'0 0.0
2017-Sep-15 14:30N 29°34' W 090°43'0 0.0
2017-Sep-15 14:00N 29°34' W 090°43'0 0.0
2017-Sep-15 13:30N 29°34' W 090°43'0 0.0
2017-Sep-15 13:00N 29°34' W 090°43'0 0.0
2017-Sep-15 12:31N 29°34' W 090°43'0 0.0
2017-Sep-15 12:00N 29°34' W 090°43'0 0.0
2017-Sep-15 11:30N 29°34' W 090°43'0 0.0
2017-Sep-15 11:00N 29°34' W 090°43'0 0.0
2017-Sep-15 10:30N 29°34' W 090°43'0 0.0
2017-Sep-15 10:00N 29°34' W 090°43'0 0.0
2017-Sep-15 09:30N 29°34' W 090°43'0 0.0
2017-Sep-15 09:00N 29°34' W 090°43'0 0.0
2017-Sep-15 08:30N 29°34' W 090°43'0 0.0
2017-Sep-15 08:00N 29°34' W 090°43'0 0.0
2017-Sep-15 07:31N 29°34' W 090°43'0 0.0
2017-Sep-15 07:00N 29°34' W 090°43'0 0.0
2017-Sep-15 06:31N 29°34' W 090°43'0 0.0
2017-Sep-15 06:00N 29°34' W 090°43'0 0.0
2017-Sep-15 05:31N 29°34' W 090°43'0 0.0
2017-Sep-15 05:00N 29°34' W 090°43'0 0.0
2017-Sep-15 04:30N 29°34' W 090°43'0 0.0
2017-Sep-15 04:00N 29°34' W 090°43'0 0.0
2017-Sep-15 03:30N 29°34' W 090°43'0 0.0
2017-Sep-15 03:00N 29°34' W 090°43'0 0.0
2017-Sep-15 02:30N 29°34' W 090°43'0 0.0
2017-Sep-15 02:00N 29°34' W 090°43'0 0.0
2017-Sep-15 01:30N 29°34' W 090°43'0 0.0
2017-Sep-15 01:00N 29°34' W 090°43'0 0.0
2017-Sep-15 00:31N 29°34' W 090°43'0 0.0
2017-Sep-15 00:00N 29°34' W 090°43'0 0.8
2017-Sep-14 23:30N 29°34' W 090°43'0 0.2
2017-Sep-14 23:00N 29°34' W 090°43'0 0.0
2017-Sep-14 22:30N 29°34' W 090°43'0 0.0
2017-Sep-14 22:00N 29°34' W 090°43'2 3.4
2017-Sep-14 21:30N 29°36' W 090°43'2 4.7
2017-Sep-14 20:59N 29°36' W 090°40'0 0.5
2017-Sep-14 20:30N 29°36' W 090°40'2 4.6
2017-Sep-14 20:00N 29°36' W 090°43'2 3.9
2017-Sep-14 19:30N 29°34' W 090°43'1 1.8
2017-Sep-14 19:00N 29°33' W 090°42'3 5.1
2017-Sep-14 18:30N 29°35' W 090°43'2 3.6
2017-Sep-14 18:00N 29°37' W 090°42'1 3.0
2017-Sep-14 17:30N 29°36' W 090°40'3 6.1
2017-Sep-14 17:00N 29°35' W 090°37'3 6.0
2017-Sep-14 16:30N 29°34' W 090°34'4 0.1
2017-Sep-12 19:28N 29°34' W 090°29'6 7.5
2017-Sep-12 18:43N 29°35' W 090°35'1 7.2
2017-Sep-12 18:30N 29°35' W 090°37'4 7.4
2017-Sep-12 18:00N 29°36' W 090°41'2 4.7
2017-Sep-12 17:31N 29°35' W 090°43'1 2.3
2017-Sep-12 17:00N 29°34' W 090°42'0 0.1
2017-Sep-12 16:30N 29°34' W 090°42'0 0.9
2017-Sep-12 16:00N 29°34' W 090°43'0 0.0
2017-Sep-12 15:30N 29°34' W 090°43'0 0.0
2017-Sep-12 15:00N 29°34' W 090°43'0 0.0
2017-Sep-12 14:30N 29°34' W 090°43'0 0.0
2017-Sep-12 14:00N 29°34' W 090°43'0 0.0
2017-Sep-12 13:30N 29°34' W 090°43'0 0.0
2017-Sep-12 13:00N 29°34' W 090°43'0 0.0
2017-Sep-12 12:31N 29°34' W 090°43'0 0.0
2017-Sep-12 09:16N 29°34' W 090°43'0 0.0
2017-Sep-12 09:00N 29°34' W 090°43'0 0.0
2017-Sep-12 08:31N 29°34' W 090°43'0 0.0
2017-Sep-12 08:00N 29°34' W 090°43'0 0.0
2017-Sep-12 07:30N 29°34' W 090°43'0 0.0
2017-Sep-12 07:00N 29°34' W 090°43'0 0.0
2017-Sep-12 06:30N 29°34' W 090°43'0 0.0
2017-Sep-12 06:00N 29°34' W 090°43'0 0.0
2017-Sep-12 05:30N 29°34' W 090°43'0 0.0
2017-Sep-12 05:00N 29°34' W 090°43'0 0.0
2017-Sep-12 04:30N 29°34' W 090°43'0 0.0
2017-Sep-12 04:00N 29°34' W 090°43'0 0.0
2017-Sep-12 03:30N 29°34' W 090°43'0 0.0
2017-Sep-12 03:01N 29°34' W 090°43'0 0.0
2017-Sep-12 02:30N 29°34' W 090°43'0 0.0
2017-Sep-12 02:01N 29°34' W 090°43'0 0.0
2017-Sep-12 01:30N 29°34' W 090°43'0 0.0
2017-Sep-12 01:01N 29°34' W 090°43'0 0.0
2017-Sep-12 00:30N 29°34' W 090°43'0 0.0
2017-Sep-12 00:00N 29°34' W 090°43'0 0.0
2017-Sep-11 23:30N 29°34' W 090°43'0 0.7
2017-Sep-11 23:00N 29°34' W 090°43'0 0.0
2017-Sep-11 22:30N 29°34' W 090°43'1 1.8
2017-Sep-11 22:00N 29°35' W 090°43'2 4.1
2017-Sep-11 21:30N 29°36' W 090°41'1 2.2
2017-Sep-11 21:00N 29°36' W 090°40'2 4.9
2017-Sep-11 20:30N 29°36' W 090°43'3 6.0
2017-Sep-11 20:00N 29°33' W 090°43'0 0.8
2017-Sep-11 19:31N 29°33' W 090°42'1 2.4
2017-Sep-11 19:00N 29°34' W 090°42'1 1.3
2017-Sep-11 18:30N 29°34' W 090°43'0 0.0
2017-Sep-11 18:01N 29°34' W 090°43'0 0.0
2017-Sep-11 17:30N 29°34' W 090°43'0 0.9
2017-Sep-11 17:00N 29°34' W 090°42'0 0.0
2017-Sep-11 16:30N 29°34' W 090°42'0 0.9
2017-Sep-11 16:01N 29°34' W 090°43'0 0.0
2017-Sep-11 15:30N 29°34' W 090°43'0 0.0
2017-Sep-11 15:00N 29°34' W 090°43'0 0.0
2017-Sep-11 14:30N 29°34' W 090°43'0 0.0
2017-Sep-11 14:00N 29°34' W 090°43'0 0.0
2017-Sep-11 13:30N 29°34' W 090°43'0 0.0
2017-Sep-11 13:00N 29°34' W 090°43'0 0.0
2017-Sep-11 12:31N 29°34' W 090°43'0 0.0
2017-Sep-11 12:00N 29°34' W 090°43'0 0.0
2017-Sep-11 11:30N 29°34' W 090°43'0 0.0
2017-Sep-11 11:00N 29°34' W 090°43'0 0.0
2017-Sep-11 10:30N 29°34' W 090°43'0 0.0
2017-Sep-11 10:00N 29°34' W 090°43'0 0.0
2017-Sep-11 09:31N 29°34' W 090°43'0 0.0
2017-Sep-11 09:01N 29°34' W 090°43'0 0.0
2017-Sep-11 08:30N 29°34' W 090°43'0 0.0
2017-Sep-11 08:01N 29°34' W 090°43'0 0.0
2017-Sep-11 07:30N 29°34' W 090°43'0 0.0
2017-Sep-11 07:00N 29°34' W 090°43'0 0.0
2017-Sep-11 06:30N 29°34' W 090°43'0 0.0
2017-Sep-11 06:00N 29°34' W 090°43'0 0.0
2017-Sep-11 05:30N 29°34' W 090°43'0 0.0
2017-Sep-11 05:01N 29°34' W 090°43'0 0.0
2017-Sep-11 04:30N 29°34' W 090°43'0 0.0
2017-Sep-11 04:01N 29°34' W 090°43'0 0.0
2017-Sep-11 03:30N 29°34' W 090°43'0 0.0
2017-Sep-11 03:01N 29°34' W 090°43'0 0.0
2017-Sep-11 02:30N 29°34' W 090°43'0 0.0
2017-Sep-11 02:00N 29°34' W 090°43'0 0.0
2017-Sep-11 01:30N 29°34' W 090°43'0 0.0
2017-Sep-11 01:00N 29°34' W 090°43'0 0.0
2017-Sep-11 00:30N 29°34' W 090°43'0 0.0
2017-Sep-11 00:00N 29°34' W 090°43'0 0.0
2017-Sep-10 23:30N 29°34' W 090°43'0 0.0
2017-Sep-10 23:00N 29°34' W 090°43'0 0.0
2017-Sep-10 22:30N 29°34' W 090°43'0 0.0
2017-Sep-10 22:00N 29°34' W 090°43'0 0.0
2017-Sep-10 21:30N 29°34' W 090°43'0 0.0
2017-Sep-10 21:00N 29°34' W 090°43'0 0.0
2017-Sep-10 20:30N 29°34' W 090°43'0 0.0
2017-Sep-10 20:00N 29°34' W 090°43'0 0.0
2017-Sep-10 19:30N 29°34' W 090°43'0 0.0
2017-Sep-10 19:00N 29°34' W 090°43'0 0.0
2017-Sep-10 18:30N 29°34' W 090°43'0 0.0
2017-Sep-10 18:00N 29°34' W 090°43'0 0.0
2017-Sep-10 17:31N 29°34' W 090°43'0 0.0
2017-Sep-10 17:01N 29°34' W 090°43'0 0.0
2017-Sep-10 16:30N 29°34' W 090°43'0 0.0
2017-Sep-10 16:00N 29°34' W 090°43'0 0.0
2017-Sep-10 15:30N 29°34' W 090°43'0 0.0
2017-Sep-10 15:00N 29°34' W 090°43'0 0.0
2017-Sep-10 14:01N 29°34' W 090°43'0 0.0
2017-Sep-10 13:30N 29°34' W 090°43'0 0.0
2017-Sep-10 13:00N 29°34' W 090°43'0 0.0
2017-Sep-10 12:30N 29°34' W 090°43'0 0.0
2017-Sep-10 12:00N 29°34' W 090°43'0 0.0
2017-Sep-10 11:30N 29°34' W 090°43'0 0.0
2017-Sep-10 11:00N 29°34' W 090°43'0 0.0
2017-Sep-10 10:30N 29°34' W 090°43'0 0.0
2017-Sep-10 10:00N 29°34' W 090°43'0 0.0
2017-Sep-10 09:30N 29°34' W 090°43'0 0.0
2017-Sep-10 09:00N 29°34' W 090°43'0 0.0
2017-Sep-10 08:30N 29°34' W 090°43'0 0.0
2017-Sep-10 08:00N 29°34' W 090°43'0 0.0
2017-Sep-10 07:30N 29°34' W 090°43'0 0.0
2017-Sep-10 07:00N 29°34' W 090°43'0 0.0
2017-Sep-10 06:30N 29°34' W 090°43'0 0.0
2017-Sep-10 06:00N 29°34' W 090°43'0 0.0
2017-Sep-10 05:30N 29°34' W 090°43'0 0.0
2017-Sep-10 05:00N 29°34' W 090°43'0 0.0
2017-Sep-10 04:30N 29°34' W 090°43'0 0.0
2017-Sep-10 04:00N 29°34' W 090°43'0 0.0
2017-Sep-10 03:31N 29°34' W 090°43'0 0.0
2017-Sep-10 03:00N 29°34' W 090°43'0 0.0
2017-Sep-10 02:30N 29°34' W 090°43'0 0.0
2017-Sep-10 02:00N 29°34' W 090°43'0 0.0
2017-Sep-10 01:30N 29°34' W 090°43'0 0.0
2017-Sep-10 01:01N 29°34' W 090°43'0 0.0
2017-Sep-10 00:30N 29°34' W 090°43'0 0.0
2017-Sep-10 00:00N 29°34' W 090°43'0 0.0
2017-Sep-09 23:30N 29°34' W 090°43'0 0.0
2017-Sep-09 23:00N 29°34' W 090°43'0 0.0
2017-Sep-09 22:30N 29°34' W 090°43'0 0.0
2017-Sep-09 22:00N 29°34' W 090°43'0 0.0
2017-Sep-09 21:31N 29°34' W 090°43'0 0.0
2017-Sep-09 21:00N 29°34' W 090°43'0 0.0
2017-Sep-09 20:30N 29°34' W 090°43'0 0.0
2017-Sep-09 20:00N 29°34' W 090°43'0 0.0
2017-Sep-09 19:30N 29°34' W 090°43'0 0.0
2017-Sep-09 19:00N 29°34' W 090°43'0 0.0
2017-Sep-09 18:30N 29°34' W 090°43'0 0.0
2017-Sep-09 18:00N 29°34' W 090°43'0 0.0
2017-Sep-09 17:30N 29°34' W 090°43'1 1.8
2017-Sep-09 17:00N 29°34' W 090°42'1 1.1
2017-Sep-09 16:31N 29°34' W 090°42'0 0.2
2017-Sep-09 16:00N 29°34' W 090°42'0 0.0
2017-Sep-09 15:30N 29°34' W 090°42'0 0.0
2017-Sep-09 15:01N 29°34' W 090°42'0 0.0
2017-Sep-09 14:30N 29°34' W 090°42'0 0.6
2017-Sep-09 14:00N 29°34' W 090°42'0 0.2
2017-Sep-09 13:30N 29°34' W 090°42'0 0.2
2017-Sep-09 13:00N 29°34' W 090°42'0 0.8
2017-Sep-09 12:30N 29°34' W 090°42'1 1.7
2017-Sep-09 12:00N 29°34' W 090°43'  
Track history (hours):
 
Tides and Currents Weather Stations Pressure Air Temp Water Temp Dewpoint Dewpoint Depression Visibility Wind Speed Wind Dir Waves Ship Positions

La Belle

Owner: Double G Marine, LLC, Houma, LA. More information available from US FCC via Universal Licensing System and Coast Guard Vessel Documentation Center.

Last reported at 2017-Sep-19 11:31 UTC. Time now 2017-Sep-19 11:53 UTC.
Position N 29°56' W 093°08'.

Length 20 m.

Type: Towing. MMSI: 366997450.

Date/timePositionNaut miles runAvg speedWind from/ knotsBaromVisibWave heightAir tempDewpointWater temp
2017-Sep-19 11:31N 29°56' W 093°08'2 3.4
2017-Sep-19 11:00N 29°56' W 093°06'2 3.4
2017-Sep-19 10:30N 29°56' W 093°04'39 2.7
2017-Sep-18 20:16N 29°51' W 092°20'1 2.9
2017-Sep-18 20:00N 29°50' W 092°19'2 3.1
2017-Sep-18 19:15N 29°49' W 092°17'1 3.4
2017-Sep-18 19:00N 29°49' W 092°16'2 3.3
2017-Sep-18 18:31N 29°48' W 092°14'2 3.0
2017-Sep-18 18:00N 29°47' W 092°13'1 2.7
2017-Sep-18 17:30N 29°47' W 092°11'2 3.0
2017-Sep-18 17:01N 29°47' W 092°10'2 3.2
2017-Sep-18 16:31N 29°47' W 092°08'2 3.3
2017-Sep-18 16:01N 29°48' W 092°06'1 2.7
2017-Sep-18 15:30N 29°48' W 092°05'2 2.9
2017-Sep-18 14:55N 29°49' W 092°03'1 2.9
2017-Sep-18 14:30N 29°49' W 092°01'65 3.0
2017-Sep-17 16:29N 29°32' W 090°49'1 2.9
2017-Sep-17 15:58N 29°32' W 090°48'1 3.0
2017-Sep-17 15:31N 29°32' W 090°46'1 3.0
2017-Sep-17 15:01N 29°33' W 090°45'1 2.6
2017-Sep-17 14:31N 29°34' W 090°44'1 2.2
2017-Sep-17 14:00N 29°33' W 090°43'1 1.6
2017-Sep-17 13:31N 29°34' W 090°43'0 0.0
2017-Sep-17 13:01N 29°34' W 090°43'0 0.0
2017-Sep-17 12:31N 29°34' W 090°43'0 0.0
2017-Sep-17 12:00N 29°34' W 090°43'0 0.0
2017-Sep-17 11:30N 29°34' W 090°43'0 0.0
2017-Sep-17 11:00N 29°34' W 090°43'0 0.0
2017-Sep-17 10:30N 29°34' W 090°43'0 0.0
2017-Sep-17 10:00N 29°34' W 090°43'0 0.0
2017-Sep-17 09:30N 29°34' W 090°43'0 0.0
2017-Sep-17 09:01N 29°34' W 090°43'0 0.0
2017-Sep-17 08:30N 29°34' W 090°43'0 0.0
2017-Sep-17 08:00N 29°34' W 090°43'0 0.0
2017-Sep-17 07:31N 29°34' W 090°43'0 0.0
2017-Sep-17 07:00N 29°34' W 090°43'0 0.0
2017-Sep-17 06:30N 29°34' W 090°43'0 0.0
2017-Sep-17 06:00N 29°34' W 090°43'0 0.0
2017-Sep-17 05:30N 29°34' W 090°43'0 0.0
2017-Sep-17 05:00N 29°34' W 090°43'0 0.0
2017-Sep-17 04:30N 29°34' W 090°43'0 0.0
2017-Sep-17 04:00N 29°34' W 090°43'0 0.0
2017-Sep-17 03:30N 29°34' W 090°43'0 0.0
2017-Sep-17 03:00N 29°34' W 090°43'0 0.0
2017-Sep-17 02:30N 29°34' W 090°43'0 0.0
2017-Sep-17 02:00N 29°34' W 090°43'0 0.0
2017-Sep-17 01:30N 29°34' W 090°43'0 0.0
2017-Sep-17 01:00N 29°34' W 090°43'0 0.0
2017-Sep-17 00:30N 29°34' W 090°43'0 0.0
2017-Sep-17 00:00N 29°34' W 090°43'0 0.0
2017-Sep-16 23:30N 29°34' W 090°43'0 0.0
2017-Sep-16 23:00N 29°34' W 090°43'0 0.0
2017-Sep-16 22:31N 29°34' W 090°43'0 0.0
2017-Sep-16 22:00N 29°34' W 090°43'0 0.0
2017-Sep-16 21:30N 29°34' W 090°43'0 0.0
2017-Sep-16 21:00N 29°34' W 090°43'0 0.0
2017-Sep-16 20:30N 29°34' W 090°43'0 0.0
2017-Sep-16 20:00N 29°34' W 090°43'0 0.0
2017-Sep-16 19:30N 29°34' W 090°43'0 0.0
2017-Sep-16 19:00N 29°34' W 090°43'0 0.0
2017-Sep-16 18:30N 29°34' W 090°43'0 0.0
2017-Sep-16 18:00N 29°34' W 090°43'0 0.0
2017-Sep-16 17:30N 29°34' W 090°43'0 0.0
2017-Sep-16 17:00N 29°34' W 090°43'0 0.0
2017-Sep-16 16:30N 29°34' W 090°43'0 0.0
2017-Sep-16 16:00N 29°34' W 090°43'0 0.0
2017-Sep-16 15:30N 29°34' W 090°43'1 2.5
2017-Sep-16 15:00N 29°33' W 090°42'1 1.4
2017-Sep-16 14:30N 29°33' W 090°42'1 2.1
2017-Sep-16 14:00N 29°34' W 090°42'0 0.4
2017-Sep-16 13:30N 29°34' W 090°42'0 0.0
2017-Sep-16 13:00N 29°34' W 090°42'0 0.1
2017-Sep-16 12:30N 29°34' W 090°42'0 0.0
2017-Sep-16 12:01N 29°34' W 090°42'1 1.3
2017-Sep-16 11:30N 29°34' W 090°43'0 0.5
2017-Sep-16 11:01N 29°34' W 090°43'0 0.0
2017-Sep-16 10:30N 29°34' W 090°43'0 0.0
2017-Sep-16 10:00N 29°34' W 090°43'0 0.0
2017-Sep-16 09:30N 29°34' W 090°43'0 0.0
2017-Sep-16 09:00N 29°34' W 090°43'0 0.0
2017-Sep-16 08:31N 29°34' W 090°43'0 0.0
2017-Sep-16 08:00N 29°34' W 090°43'0 0.0
2017-Sep-16 07:30N 29°34' W 090°43'0 0.0
2017-Sep-16 07:00N 29°34' W 090°43'0 0.0
2017-Sep-16 06:30N 29°34' W 090°43'0 0.0
2017-Sep-16 06:00N 29°34' W 090°43'0 0.0
2017-Sep-16 05:30N 29°34' W 090°43'0 0.0
2017-Sep-16 05:00N 29°34' W 090°43'0 0.0
2017-Sep-16 04:30N 29°34' W 090°43'0 0.0
2017-Sep-16 04:00N 29°34' W 090°43'0 0.0
2017-Sep-16 03:30N 29°34' W 090°43'0 0.0
2017-Sep-16 03:00N 29°34' W 090°43'0 0.0
2017-Sep-16 02:31N 29°34' W 090°43'0 0.0
2017-Sep-16 02:00N 29°34' W 090°43'0 0.0
2017-Sep-16 01:30N 29°34' W 090°43'0 0.0
2017-Sep-16 01:00N 29°34' W 090°43'0 0.0
2017-Sep-16 00:30N 29°34' W 090°43'0 0.0
2017-Sep-16 00:00N 29°34' W 090°43'0 0.0
2017-Sep-15 23:30N 29°34' W 090°43'0 0.0
2017-Sep-15 23:00N 29°34' W 090°43'0 0.0
2017-Sep-15 22:30N 29°34' W 090°43'0 0.0
2017-Sep-15 22:00N 29°34' W 090°43'0 0.0
2017-Sep-15 21:30N 29°34' W 090°43'0 0.0
2017-Sep-15 21:00N 29°34' W 090°43'0 0.0
2017-Sep-15 20:30N 29°34' W 090°43'0 0.0
2017-Sep-15 20:00N 29°34' W 090°43'0 0.0
2017-Sep-15 19:30N 29°34' W 090°43'0 0.0
2017-Sep-15 19:00N 29°34' W 090°43'0 0.0
2017-Sep-15 18:30N 29°34' W 090°43'0 0.0
2017-Sep-15 18:00N 29°34' W 090°43'0 0.0
2017-Sep-15 17:30N 29°34' W 090°43'0 0.0
2017-Sep-15 17:00N 29°34' W 090°43'0 0.0
2017-Sep-15 16:30N 29°34' W 090°43'0 0.0
2017-Sep-15 16:00N 29°34' W 090°43'0 0.0
2017-Sep-15 15:30N 29°34' W 090°43'0 0.0
2017-Sep-15 15:01N 29°34' W 090°43'0 0.0
2017-Sep-15 14:30N 29°34' W 090°43'0 0.0
2017-Sep-15 14:00N 29°34' W 090°43'0 0.0
2017-Sep-15 13:30N 29°34' W 090°43'0 0.0
2017-Sep-15 13:00N 29°34' W 090°43'0 0.0
2017-Sep-15 12:31N 29°34' W 090°43'0 0.0
2017-Sep-15 12:00N 29°34' W 090°43'0 0.0
2017-Sep-15 11:30N 29°34' W 090°43'0 0.0
2017-Sep-15 11:00N 29°34' W 090°43'0 0.0
2017-Sep-15 10:30N 29°34' W 090°43'0 0.0
2017-Sep-15 10:00N 29°34' W 090°43'0 0.0
2017-Sep-15 09:30N 29°34' W 090°43'0 0.0
2017-Sep-15 09:00N 29°34' W 090°43'0 0.0
2017-Sep-15 08:30N 29°34' W 090°43'0 0.0
2017-Sep-15 08:00N 29°34' W 090°43'0 0.0
2017-Sep-15 07:31N 29°34' W 090°43'0 0.0
2017-Sep-15 07:00N 29°34' W 090°43'0 0.0
2017-Sep-15 06:31N 29°34' W 090°43'0 0.0
2017-Sep-15 06:00N 29°34' W 090°43'0 0.0
2017-Sep-15 05:31N 29°34' W 090°43'0 0.0
2017-Sep-15 05:00N 29°34' W 090°43'0 0.0
2017-Sep-15 04:30N 29°34' W 090°43'0 0.0
2017-Sep-15 04:00N 29°34' W 090°43'0 0.0
2017-Sep-15 03:30N 29°34' W 090°43'0 0.0
2017-Sep-15 03:00N 29°34' W 090°43'0 0.0
2017-Sep-15 02:30N 29°34' W 090°43'0 0.0
2017-Sep-15 02:00N 29°34' W 090°43'0 0.0
2017-Sep-15 01:30N 29°34' W 090°43'0 0.0
2017-Sep-15 01:00N 29°34' W 090°43'0 0.0
2017-Sep-15 00:31N 29°34' W 090°43'0 0.0
2017-Sep-15 00:00N 29°34' W 090°43'0 0.8
2017-Sep-14 23:30N 29°34' W 090°43'0 0.2
2017-Sep-14 23:00N 29°34' W 090°43'0 0.0
2017-Sep-14 22:30N 29°34' W 090°43'0 0.0
2017-Sep-14 22:00N 29°34' W 090°43'2 3.4
2017-Sep-14 21:30N 29°36' W 090°43'2 4.7
2017-Sep-14 20:59N 29°36' W 090°40'0 0.5
2017-Sep-14 20:30N 29°36' W 090°40'2 4.6
2017-Sep-14 20:00N 29°36' W 090°43'2 3.9
2017-Sep-14 19:30N 29°34' W 090°43'1 1.8
2017-Sep-14 19:00N 29°33' W 090°42'3 5.1
2017-Sep-14 18:30N 29°35' W 090°43'2 3.6
2017-Sep-14 18:00N 29°37' W 090°42'1 3.0
2017-Sep-14 17:30N 29°36' W 090°40'3 6.1
2017-Sep-14 17:00N 29°35' W 090°37'3 6.0
2017-Sep-14 16:30N 29°34' W 090°34'4 0.1
2017-Sep-12 19:28N 29°34' W 090°29'6 7.5
2017-Sep-12 18:43N 29°35' W 090°35'1 7.2
2017-Sep-12 18:30N 29°35' W 090°37'4 7.4
2017-Sep-12 18:00N 29°36' W 090°41'2 4.7
2017-Sep-12 17:31N 29°35' W 090°43'1 2.3
2017-Sep-12 17:00N 29°34' W 090°42'0 0.1
2017-Sep-12 16:30N 29°34' W 090°42'0 0.9
2017-Sep-12 16:00N 29°34' W 090°43'0 0.0
2017-Sep-12 15:30N 29°34' W 090°43'0 0.0
2017-Sep-12 15:00N 29°34' W 090°43'0 0.0
2017-Sep-12 14:30N 29°34' W 090°43'0 0.0
2017-Sep-12 14:00N 29°34' W 090°43'0 0.0
2017-Sep-12 13:30N 29°34' W 090°43'0 0.0
2017-Sep-12 13:00N 29°34' W 090°43'0 0.0
2017-Sep-12 12:31N 29°34' W 090°43'0 0.0
2017-Sep-12 09:16N 29°34' W 090°43'0 0.0
2017-Sep-12 09:00N 29°34' W 090°43'0 0.0
2017-Sep-12 08:31N 29°34' W 090°43'0 0.0
2017-Sep-12 08:00N 29°34' W 090°43'0 0.0
2017-Sep-12 07:30N 29°34' W 090°43'0 0.0
2017-Sep-12 07:00N 29°34' W 090°43'0 0.0
2017-Sep-12 06:30N 29°34' W 090°43'0 0.0
2017-Sep-12 06:00N 29°34' W 090°43'0 0.0
2017-Sep-12 05:30N 29°34' W 090°43'0 0.0
2017-Sep-12 05:00N 29°34' W 090°43'0 0.0
2017-Sep-12 04:30N 29°34' W 090°43'0 0.0
2017-Sep-12 04:00N 29°34' W 090°43'0 0.0
2017-Sep-12 03:30N 29°34' W 090°43'0 0.0
2017-Sep-12 03:01N 29°34' W 090°43'0 0.0
2017-Sep-12 02:30N 29°34' W 090°43'0 0.0
2017-Sep-12 02:01N 29°34' W 090°43'0 0.0
2017-Sep-12 01:30N 29°34' W 090°43'0 0.0
2017-Sep-12 01:01N 29°34' W 090°43'0 0.0
2017-Sep-12 00:30N 29°34' W 090°43'0 0.0
2017-Sep-12 00:00N 29°34' W 090°43'0 0.0
2017-Sep-11 23:30N 29°34' W 090°43'0 0.7
2017-Sep-11 23:00N 29°34' W 090°43'0 0.0
2017-Sep-11 22:30N 29°34' W 090°43'1 1.8
2017-Sep-11 22:00N 29°35' W 090°43'2 4.1
2017-Sep-11 21:30N 29°36' W 090°41'1 2.2
2017-Sep-11 21:00N 29°36' W 090°40'2 4.9
2017-Sep-11 20:30N 29°36' W 090°43'3 6.0
2017-Sep-11 20:00N 29°33' W 090°43'0 0.8
2017-Sep-11 19:31N 29°33' W 090°42'1 2.4
2017-Sep-11 19:00N 29°34' W 090°42'1 1.3
2017-Sep-11 18:30N 29°34' W 090°43'0 0.0
2017-Sep-11 18:01N 29°34' W 090°43'0 0.0
2017-Sep-11 17:30N 29°34' W 090°43'0 0.9
2017-Sep-11 17:00N 29°34' W 090°42'0 0.0
2017-Sep-11 16:30N 29°34' W 090°42'0 0.9
2017-Sep-11 16:01N 29°34' W 090°43'0 0.0
2017-Sep-11 15:30N 29°34' W 090°43'0 0.0
2017-Sep-11 15:00N 29°34' W 090°43'0 0.0
2017-Sep-11 14:30N 29°34' W 090°43'0 0.0
2017-Sep-11 14:00N 29°34' W 090°43'0 0.0
2017-Sep-11 13:30N 29°34' W 090°43'0 0.0
2017-Sep-11 13:00N 29°34' W 090°43'0 0.0
2017-Sep-11 12:31N 29°34' W 090°43'0 0.0
2017-Sep-11 12:00N 29°34' W 090°43'0 0.0
2017-Sep-11 11:30N 29°34' W 090°43'0 0.0
2017-Sep-11 11:00N 29°34' W 090°43'0 0.0
2017-Sep-11 10:30N 29°34' W 090°43'0 0.0
2017-Sep-11 10:00N 29°34' W 090°43'0 0.0
2017-Sep-11 09:31N 29°34' W 090°43'0 0.0
2017-Sep-11 09:01N 29°34' W 090°43'0 0.0
2017-Sep-11 08:30N 29°34' W 090°43'0 0.0
2017-Sep-11 08:01N 29°34' W 090°43'0 0.0
2017-Sep-11 07:30N 29°34' W 090°43'0 0.0
2017-Sep-11 07:00N 29°34' W 090°43'0 0.0
2017-Sep-11 06:30N 29°34' W 090°43'0 0.0
2017-Sep-11 06:00N 29°34' W 090°43'0 0.0
2017-Sep-11 05:30N 29°34' W 090°43'0 0.0
2017-Sep-11 05:01N 29°34' W 090°43'0 0.0
2017-Sep-11 04:30N 29°34' W 090°43'0 0.0
2017-Sep-11 04:01N 29°34' W 090°43'0 0.0
2017-Sep-11 03:30N 29°34' W 090°43'0 0.0
2017-Sep-11 03:01N 29°34' W 090°43'0 0.0
2017-Sep-11 02:30N 29°34' W 090°43'0 0.0
2017-Sep-11 02:00N 29°34' W 090°43'0 0.0
2017-Sep-11 01:30N 29°34' W 090°43'0 0.0
2017-Sep-11 01:00N 29°34' W 090°43'0 0.0
2017-Sep-11 00:30N 29°34' W 090°43'0 0.0
2017-Sep-11 00:00N 29°34' W 090°43'0 0.0
2017-Sep-10 23:30N 29°34' W 090°43'0 0.0
2017-Sep-10 23:00N 29°34' W 090°43'0 0.0
2017-Sep-10 22:30N 29°34' W 090°43'0 0.0
2017-Sep-10 22:00N 29°34' W 090°43'0 0.0
2017-Sep-10 21:30N 29°34' W 090°43'0 0.0
2017-Sep-10 21:00N 29°34' W 090°43'0 0.0
2017-Sep-10 20:30N 29°34' W 090°43'0 0.0
2017-Sep-10 20:00N 29°34' W 090°43'0 0.0
2017-Sep-10 19:30N 29°34' W 090°43'0 0.0
2017-Sep-10 19:00N 29°34' W 090°43'0 0.0
2017-Sep-10 18:30N 29°34' W 090°43'0 0.0
2017-Sep-10 18:00N 29°34' W 090°43'0 0.0
2017-Sep-10 17:31N 29°34' W 090°43'0 0.0
2017-Sep-10 17:01N 29°34' W 090°43'0 0.0
2017-Sep-10 16:30N 29°34' W 090°43'0 0.0
2017-Sep-10 16:00N 29°34' W 090°43'0 0.0
2017-Sep-10 15:30N 29°34' W 090°43'0 0.0
2017-Sep-10 15:00N 29°34' W 090°43'0 0.0
2017-Sep-10 14:01N 29°34' W 090°43'0 0.0
2017-Sep-10 13:30N 29°34' W 090°43'0 0.0
2017-Sep-10 13:00N 29°34' W 090°43'0 0.0
2017-Sep-10 12:30N 29°34' W 090°43'0 0.0
2017-Sep-10 12:00N 29°34' W 090°43'0 0.0
2017-Sep-10 11:30N 29°34' W 090°43'0 0.0
2017-Sep-10 11:00N 29°34' W 090°43'0 0.0
2017-Sep-10 10:30N 29°34' W 090°43'0 0.0
2017-Sep-10 10:00N 29°34' W 090°43'0 0.0
2017-Sep-10 09:30N 29°34' W 090°43'0 0.0
2017-Sep-10 09:00N 29°34' W 090°43'0 0.0
2017-Sep-10 08:30N 29°34' W 090°43'0 0.0
2017-Sep-10 08:00N 29°34' W 090°43'0 0.0
2017-Sep-10 07:30N 29°34' W 090°43'0 0.0
2017-Sep-10 07:00N 29°34' W 090°43'0 0.0
2017-Sep-10 06:30N 29°34' W 090°43'0 0.0
2017-Sep-10 06:00N 29°34' W 090°43'0 0.0
2017-Sep-10 05:30N 29°34' W 090°43'0 0.0
2017-Sep-10 05:00N 29°34' W 090°43'0 0.0
2017-Sep-10 04:30N 29°34' W 090°43'0 0.0
2017-Sep-10 04:00N 29°34' W 090°43'0 0.0
2017-Sep-10 03:31N 29°34' W 090°43'0 0.0
2017-Sep-10 03:00N 29°34' W 090°43'0 0.0
2017-Sep-10 02:30N 29°34' W 090°43'0 0.0
2017-Sep-10 02:00N 29°34' W 090°43'0 0.0
2017-Sep-10 01:30N 29°34' W 090°43'0 0.0
2017-Sep-10 01:01N 29°34' W 090°43'0 0.0
2017-Sep-10 00:30N 29°34' W 090°43'0 0.0
2017-Sep-10 00:00N 29°34' W 090°43'0 0.0
2017-Sep-09 23:30N 29°34' W 090°43'0 0.0
2017-Sep-09 23:00N 29°34' W 090°43'0 0.0
2017-Sep-09 22:30N 29°34' W 090°43'0 0.0
2017-Sep-09 22:00N 29°34' W 090°43'0 0.0
2017-Sep-09 21:31N 29°34' W 090°43'0 0.0
2017-Sep-09 21:00N 29°34' W 090°43'0 0.0
2017-Sep-09 20:30N 29°34' W 090°43'0 0.0
2017-Sep-09 20:00N 29°34' W 090°43'0 0.0
2017-Sep-09 19:30N 29°34' W 090°43'0 0.0
2017-Sep-09 19:00N 29°34' W 090°43'0 0.0
2017-Sep-09 18:30N 29°34' W 090°43'0 0.0
2017-Sep-09 18:00N 29°34' W 090°43'0 0.0
2017-Sep-09 17:30N 29°34' W 090°43'1 1.8
2017-Sep-09 17:00N 29°34' W 090°42'1 1.1
2017-Sep-09 16:31N 29°34' W 090°42'0 0.2
2017-Sep-09 16:00N 29°34' W 090°42'0 0.0
2017-Sep-09 15:30N 29°34' W 090°42'0 0.0
2017-Sep-09 15:01N 29°34' W 090°42'0 0.0
2017-Sep-09 14:30N 29°34' W 090°42'0 0.6
2017-Sep-09 14:00N 29°34' W 090°42'0 0.2
2017-Sep-09 13:30N 29°34' W 090°42'0 0.2
2017-Sep-09 13:00N 29°34' W 090°42'0 0.8
2017-Sep-09 12:30N 29°34' W 090°42'1 1.7
2017-Sep-09 12:00N 29°34' W 090°43'  

Dump ship's entire track history